Time;durP1;ratioP1;P1;durP2;ratioP2;P2;SDS_P1;SDS_P2;PMS_P1;PMS_P2;Temp;Humidity;BMP_temperature;BMP_pressure;BME280_temperature;BME280_humidity;BME280_pressure;Samples;Min_cycle;Max_cycle;Signal;HPM_P1;HPM_P2
2022/01/15 00:01:39;;;;;;;86.68;30.67;;;;;;;-142.75;100.00;79736.84;4994545;28;20108;-69
2022/01/15 00:04:04;;;;;;;99.95;29.92;;;;;;;-142.75;100.00;79744.72;4993574;28;20108;-69
2022/01/15 00:06:29;;;;;;;78.95;27.00;;;;;;;-142.75;100.00;79752.63;5011704;28;20061;-69
2022/01/15 00:08:55;;;;;;;77.80;27.95;;;;;;;-142.75;100.00;79754.59;5011394;28;20058;-69
2022/01/15 00:11:20;;;;;;;103.93;27.40;;;;;;;-142.75;100.00;79760.50;5011667;28;20064;-69
2022/01/15 00:13:54;;;;;;;87.90;27.98;;;;;;;-142.75;100.00;79764.44;5011656;28;20107;-69
2022/01/15 00:16:44;;;;;;;85.63;28.27;;;;;;;-142.75;100.00;79772.31;4994104;28;20036;-69
2022/01/15 00:19:12;;;;;;;82.20;27.90;;;;;;;-142.75;100.00;79774.28;5010861;28;20026;-68
2022/01/15 00:21:37;;;;;;;72.70;26.83;;;;;;;-142.75;100.00;79770.34;4993985;28;20022;-69
2022/01/15 00:24:03;;;;;;;77.72;27.05;;;;;;;-142.75;100.00;79760.50;4993904;28;20064;-69
2022/01/15 00:26:28;;;;;;;87.57;28.05;;;;;;;-142.75;100.00;79772.31;5011479;28;20022;-69
2022/01/15 00:28:54;;;;;;;91.80;28.95;;;;;;;-142.75;100.00;79766.41;4993624;28;20431;-68
2022/01/15 00:31:19;;;;;;;89.20;27.02;;;;;;;-142.75;100.00;79770.34;5011393;28;20040;-69
2022/01/15 00:33:45;;;;;;;92.30;29.77;;;;;;;-142.75;100.00;79760.50;5011214;28;20033;-69
2022/01/15 00:36:10;;;;;;;92.13;29.40;;;;;;;-142.75;100.00;79770.34;5011348;28;20025;-69
2022/01/15 00:38:36;;;;;;;76.03;27.25;;;;;;;-142.75;100.00;79768.38;5011097;28;20281;-69
2022/01/15 00:41:01;;;;;;;87.05;28.63;;;;;;;-142.75;100.00;79760.50;5011166;28;20026;-69
2022/01/15 00:43:27;;;;;;;79.80;25.25;;;;;;;-142.75;100.00;79760.50;4993467;28;20125;-69
2022/01/15 00:45:52;;;;;;;75.07;26.83;;;;;;;-142.75;100.00;79764.44;5006044;28;20064;-69
2022/01/15 00:48:17;;;;;;;78.17;26.03;;;;;;;-142.75;100.00;79780.19;5030557;28;20079;-69
2022/01/15 00:50:43;;;;;;;82.82;27.13;;;;;;;-142.75;100.00;79784.13;5030758;28;20397;-69
2022/01/15 00:53:08;;;;;;;75.35;27.63;;;;;;;-142.75;100.00;79788.06;5030666;28;20021;-69
2022/01/15 00:55:34;;;;;;;86.35;27.05;;;;;;;-142.75;100.00;79768.38;5025868;28;20030;-69
2022/01/15 00:57:59;;;;;;;87.80;27.45;;;;;;;-142.75;100.00;79768.38;4993528;28;20472;-68
2022/01/15 01:00:26;;;;;;;76.25;26.88;;;;;;;-142.75;100.00;79762.47;5011030;28;20088;-68
2022/01/15 01:02:52;;;;;;;85.17;28.43;;;;;;;-142.75;100.00;79752.63;5010729;28;20026;-68
2022/01/15 01:05:18;;;;;;;95.60;26.77;;;;;;;-142.75;100.00;79756.56;4993523;28;20022;-68
2022/01/15 01:07:44;;;;;;;81.28;25.48;;;;;;;-142.75;100.00;79748.66;5010948;28;20022;-68
2022/01/15 01:23:07;;;;;;;84.10;26.73;;;;;;;-142.75;100.00;79732.91;5014717;28;20065;-68
2022/01/15 01:25:43;;;;;;;89.25;26.83;;;;;;;-142.75;100.00;79730.94;4997089;28;20494;-68
2022/01/15 01:28:18;;;;;;;96.47;26.67;;;;;;;-142.75;100.00;79732.91;5014414;28;20026;-69
2022/01/15 01:30:50;;;;;;;82.00;29.03;;;;;;;-142.75;100.00;79730.94;5014658;28;20024;-68
2022/01/15 01:33:32;;;;;;;102.23;28.17;;;;;;;-142.75;100.00;79740.78;5013159;28;20056;-68
2022/01/15 01:36:45;;;;;;;90.30;27.17;;;;;;;-142.75;100.00;79734.88;5014433;28;20092;-68
2022/01/15 01:38:56;;;;;;;104.07;26.97;;;;;;;-142.75;100.00;79736.84;5008318;28;20048;-68
2022/01/15 01:41:23;;;;;;;86.63;25.67;;;;;;;-142.75;100.00;79754.59;5014480;28;20080;-68
2022/01/15 01:43:54;;;;;;;78.50;25.87;;;;;;;-142.75;100.00;79756.56;5014097;28;20061;-68
2022/01/15 01:48:53;;;;;;;98.80;25.97;;;;;;;-142.75;100.00;79762.47;5014110;28;20492;-69
2022/01/15 01:51:33;;;;;;;77.83;27.23;;;;;;;-142.75;100.00;79764.44;4997477;28;20076;-68
2022/01/15 01:54:04;;;;;;;74.17;23.83;;;;;;;-142.75;100.00;79756.56;5015278;28;20060;-68
2022/01/15 01:56:30;;;;;;;83.17;25.10;;;;;;;-142.75;100.00;79760.50;5015224;28;20077;-68
2022/01/15 01:58:56;;;;;;;;;;;;;;;-142.75;100.00;79760.50;5016976;28;20030;-68
2022/01/15 02:01:22;;;;;;;88.73;25.53;;;;;;;-142.75;100.00;79760.50;5034996;28;19982;-68
2022/01/15 02:03:47;;;;;;;77.72;25.02;;;;;;;-142.75;100.00;79756.56;5034633;28;20160;-68
2022/01/15 02:06:13;;;;;;;85.78;23.70;;;;;;;-142.75;100.00;79756.56;5034563;28;20047;-69
2022/01/15 02:08:38;;;;;;;83.10;25.50;;;;;;;-142.75;100.00;79764.44;5034356;28;20033;-68
2022/01/15 02:11:06;;;;;;;84.05;23.73;;;;;;;-142.75;100.00;79772.31;5016770;28;20427;-68
2022/01/15 02:13:33;;;;;;;71.20;22.63;;;;;;;-142.75;100.00;79766.41;5033401;28;20013;-68
2022/01/15 02:16:00;;;;;;;75.20;24.13;;;;;;;-142.75;100.00;79768.38;5033658;28;20475;-69
2022/01/15 02:18:29;;;;;;;87.93;25.10;;;;;;;-142.75;100.00;79772.31;5015538;28;20036;-68
2022/01/15 02:23:50;;;;;;;78.27;24.17;;;;;;;-142.75;100.00;79780.19;5017318;28;20040;-68
2022/01/15 02:26:18;;;;;;;74.73;23.07;;;;;;;-142.75;100.00;79784.13;5033349;28;20056;-68
2022/01/15 02:29:04;;;;;;;90.43;23.17;;;;;;;-142.75;100.00;79784.13;5032599;28;20017;-68
2022/01/15 02:31:31;;;;;;;79.80;24.13;;;;;;;-142.75;100.00;79788.06;5032457;28;20037;-68
2022/01/15 02:34:00;;;;;;;83.57;23.30;;;;;;;-142.75;100.00;79780.19;5033046;28;20017;-68
2022/01/15 02:36:28;;;;;;;73.63;22.13;;;;;;;-142.75;100.00;79774.28;5033023;28;20072;-68
2022/01/15 02:38:54;;;;;;;91.73;25.53;;;;;;;-142.75;100.00;79772.31;5032753;28;20112;-68
2022/01/15 02:41:28;;;;;;;83.22;23.23;;;;;;;-142.75;100.00;79770.34;5033106;28;20049;-68
2022/01/15 02:43:54;;;;;;;92.80;26.10;;;;;;;-142.75;100.00;79756.56;5032905;28;20040;-68
2022/01/15 02:48:57;;;;;;;75.80;23.43;;;;;;;-142.75;100.00;79736.84;5032655;28;20120;-68
2022/01/15 02:51:25;;;;;;;73.70;24.47;;;;;;;-142.75;100.00;79744.72;5032837;28;20087;-68
2022/01/15 02:53:55;;;;;;;78.60;24.33;;;;;;;-142.75;100.00;79752.63;5032644;28;20029;-68
2022/01/15 02:56:41;;;;;;;79.73;21.90;;;;;;;-142.75;100.00;79752.63;5032674;28;20083;-68
2022/01/15 02:59:09;;;;;;;87.47;23.33;;;;;;;-142.75;100.00;79748.66;5014726;28;20029;-68
2022/01/15 03:01:35;;;;;;;85.23;23.67;;;;;;;-142.75;100.00;79752.63;5032670;28;20083;-68
2022/01/15 03:04:02;;;;;;;90.13;23.52;;;;;;;-142.75;100.00;79744.72;5033362;28;20041;-68
2022/01/15 03:06:27;;;;;;;89.60;23.87;;;;;;;-142.75;100.00;79756.56;5014686;28;20483;-68
2022/01/15 03:08:53;;;;;;;79.05;23.10;;;;;;;-142.75;100.00;79754.59;5032274;28;20047;-68
2022/01/15 03:11:19;;;;;;;77.30;24.30;;;;;;;-142.75;100.00;79744.72;5032407;28;20030;-68
2022/01/15 03:13:45;;;;;;;75.72;22.90;;;;;;;-142.75;100.00;79740.78;5032464;28;20025;-69
2022/01/15 03:16:15;;;;;;;;;;;;;;;-142.75;100.00;79740.78;5032829;28;20183;-69
2022/01/15 03:18:41;;;;;;;75.67;21.20;;;;;;;-142.75;100.00;79756.56;5032169;28;19913;-67
2022/01/15 03:21:06;;;;;;;66.30;20.52;;;;;;;-142.75;100.00;79752.63;5032945;28;20041;-68
2022/01/15 03:23:32;;;;;;;89.82;21.02;;;;;;;-142.75;100.00;79768.38;5032217;28;20113;-69
2022/01/15 03:25:57;;;;;;;80.95;22.20;;;;;;;-142.75;100.00;79770.34;5032373;28;20025;-68
2022/01/15 03:28:22;;;;;;;86.50;21.50;;;;;;;-142.75;100.00;79768.38;5014008;28;20025;-68
2022/01/15 03:30:48;;;;;;;78.43;23.00;;;;;;;-142.75;100.00;79760.50;5032062;28;20275;-68
2022/01/15 03:33:13;;;;;;;72.63;19.77;;;;;;;-142.75;100.00;79776.25;5014240;28;20268;-68
2022/01/15 03:35:38;;;;;;;75.90;24.00;;;;;;;-142.75;100.00;79768.38;5031951;28;20402;-68
2022/01/15 03:38:05;;;;;;;67.22;21.05;;;;;;;-142.75;100.00;79766.41;5013664;28;20026;-68
2022/01/15 03:40:32;;;;;;;70.87;21.40;;;;;;;-142.75;100.00;79764.44;5031173;28;20025;-68
2022/01/15 03:42:57;;;;;;;89.77;22.83;;;;;;;-142.75;100.00;79772.31;5031749;28;20021;-68
2022/01/15 03:45:23;;;;;;;88.20;22.33;;;;;;;-142.75;100.00;79764.44;5031838;28;20113;-68
2022/01/15 03:47:48;;;;;;;84.38;22.10;;;;;;;-142.75;100.00;79768.38;5031571;28;20384;-67
2022/01/15 03:50:15;;;;;;;82.13;22.25;;;;;;;-142.75;100.00;79770.34;5031565;28;20113;-68
2022/01/15 03:52:41;;;;;;;95.93;23.33;;;;;;;-142.75;100.00;79758.53;5031461;28;20075;-68
2022/01/15 03:55:09;;;;;;;84.90;24.33;;;;;;;-142.75;100.00;79760.50;5013889;28;20022;-68
2022/01/15 03:57:35;;;;;;;88.03;23.37;;;;;;;-142.75;100.00;79768.38;5013790;28;20475;-68
2022/01/15 04:00:00;;;;;;;79.78;21.58;;;;;;;-142.75;100.00;79762.47;5013473;28;20128;-68
2022/01/15 04:02:29;;;;;;;79.00;22.20;;;;;;;-142.75;100.00;79760.50;5031391;28;20026;-68
2022/01/15 04:04:54;;;;;;;77.77;22.27;;;;;;;-142.75;100.00;79762.47;5031480;28;20025;-69
2022/01/15 04:07:19;;;;;;;70.40;22.33;;;;;;;-142.75;100.00;79760.50;5031523;28;20030;-68
2022/01/15 04:09:44;;;;;;;80.97;23.10;;;;;;;-142.75;100.00;79772.31;5031155;28;20291;-68
2022/01/15 04:12:10;;;;;;;69.60;20.87;;;;;;;-142.75;100.00;79772.31;5031314;28;20279;-68
2022/01/15 04:14:35;;;;;;;87.80;21.30;;;;;;;-142.75;100.00;79768.38;5013422;28;20021;-68
2022/01/15 04:17:01;;;;;;;96.93;21.13;;;;;;;-142.75;100.00;79768.38;5031285;28;20029;-68
2022/01/15 04:19:28;;;;;;;85.13;19.75;;;;;;;-142.75;100.00;79788.06;5030950;28;20272;-69
2022/01/15 04:21:53;;;;;;;100.50;19.33;;;;;;;-142.75;100.00;79782.16;5031208;28;20029;-68
2022/01/15 04:24:20;;;;;;;77.05;19.83;;;;;;;-142.75;100.00;79780.19;5030971;28;20037;-68
2022/01/15 04:26:46;;;;;;;80.70;18.97;;;;;;;-142.75;100.00;79782.16;5031175;28;20151;-68
2022/01/15 04:29:11;;;;;;;;;;;;;;;-142.75;100.00;79797.94;5031204;28;20029;-68
2022/01/15 04:31:49;;;;;;;71.47;18.87;;;;;;;-142.75;100.00;79809.75;5031034;28;20019;-68
2022/01/15 04:34:16;;;;;;;76.17;17.17;;;;;;;-142.75;100.00;79811.72;5030973;28;20017;-68
2022/01/15 04:36:43;;;;;;;114.77;18.53;;;;;;;-142.75;100.00;79821.56;5030845;28;20544;-68
2022/01/15 04:39:08;;;;;;;85.33;18.53;;;;;;;-142.75;100.00;79813.69;5030608;28;20104;-68
2022/01/15 04:41:33;;;;;;;88.20;19.83;;;;;;;-142.75;100.00;79815.66;5030776;28;20112;-68
2022/01/15 04:43:59;;;;;;;76.85;19.10;;;;;;;-142.75;100.00;79811.72;5030777;28;20475;-69
2022/01/15 04:46:24;;;;;;;106.50;18.40;;;;;;;-142.75;100.00;79799.91;5029624;28;20074;-68
2022/01/15 04:48:49;;;;;;;116.23;21.90;;;;;;;-142.75;100.00;79780.19;5012865;28;20295;-68
2022/01/15 04:51:14;;;;;;;110.40;20.40;;;;;;;-142.75;100.00;79792.00;5029339;28;20461;-68
2022/01/15 04:53:40;;;;;;;88.13;18.63;;;;;;;-142.75;100.00;79792.00;5039396;22;20037;-67
2022/01/15 04:56:05;;;;;;;98.73;20.53;;;;;;;-142.75;100.00;79792.00;5041977;28;20765;-67
2022/01/15 04:58:30;;;;;;;127.43;22.65;;;;;;;-142.75;100.00;79792.00;5044051;28;20347;-67
2022/01/15 05:00:56;;;;;;;112.90;19.23;;;;;;;-142.75;100.00;79774.28;5041722;28;20024;-67
2022/01/15 05:03:21;;;;;;;86.45;20.67;;;;;;;-142.75;100.00;79774.28;5022291;28;20789;-68
2022/01/15 05:05:46;;;;;;;98.88;19.95;;;;;;;-142.75;100.00;79784.13;5030343;28;20111;-66
2022/01/15 05:08:12;;;;;;;92.57;20.70;;;;;;;-142.75;100.00;79786.09;5030532;28;20103;-66
2022/01/15 05:10:44;;;;;;;;;;;;;;;-142.75;100.00;79788.06;5031030;28;20271;-67
2022/01/15 05:13:10;;;;;;;88.13;19.43;;;;;;;-142.75;100.00;79788.06;5030533;28;19912;-66
2022/01/15 05:15:35;;;;;;;98.72;19.17;;;;;;;-142.75;100.00;79792.00;5030584;28;20028;-67
2022/01/15 05:18:00;;;;;;;108.13;20.27;;;;;;;-142.75;100.00;79774.28;5012578;28;20406;-66
2022/01/15 05:20:26;;;;;;;117.70;20.58;;;;;;;-142.75;100.00;79776.25;5012761;28;20398;-66
2022/01/15 05:22:51;;;;;;;106.95;20.95;;;;;;;-142.75;100.00;79766.41;5030404;28;20029;-66
2022/01/15 05:25:18;;;;;;;130.48;22.15;;;;;;;-142.75;100.00;79756.56;5030364;28;20056;-67
2022/01/15 05:27:45;;;;;;;128.63;20.53;;;;;;;-142.75;100.00;79756.56;5030437;28;20026;-67
2022/01/15 05:30:12;;;;;;;147.97;20.97;;;;;;;-142.75;100.00;79758.53;5012519;28;20021;-67
2022/01/15 05:32:38;;;;;;;116.00;19.73;;;;;;;-142.75;100.00;79756.56;5012757;28;20471;-67
2022/01/15 05:35:04;;;;;;;105.65;19.13;;;;;;;-142.75;100.00;79766.41;5030270;28;20034;-67
2022/01/15 05:37:29;;;;;;;105.05;18.40;;;;;;;-142.75;100.00;79770.34;5013003;28;20021;-67
2022/01/15 05:39:54;;;;;;;133.05;20.13;;;;;;;-142.75;100.00;79768.38;5012583;28;20014;-67
2022/01/15 05:42:20;;;;;;;103.57;20.27;;;;;;;-142.75;100.00;79764.44;5030230;28;20021;-67
2022/01/15 05:44:46;;;;;;;107.18;17.80;;;;;;;-142.75;100.00;79760.50;5030338;28;20286;-68
2022/01/15 05:47:11;;;;;;;112.57;19.95;;;;;;;-142.75;100.00;79758.53;5030394;28;20018;-65
2022/01/15 05:49:37;;;;;;;103.93;19.20;;;;;;;-142.75;100.00;79748.66;5029988;28;20523;-67
2022/01/15 05:52:03;;;;;;;107.60;19.85;;;;;;;-142.75;100.00;79752.63;5030246;28;20032;-68
2022/01/15 05:54:28;;;;;;;111.53;18.48;;;;;;;-142.75;100.00;79742.75;5029934;28;20025;-68
2022/01/15 05:56:55;;;;;;;130.02;20.08;;;;;;;-142.75;100.00;79728.97;5030212;28;20499;-66
2022/01/15 05:59:20;;;;;;;;;;;;;;;-142.75;100.00;79734.88;5013059;28;20017;-66
2022/01/15 06:01:45;;;;;;;118.70;19.67;;;;;;;-142.75;100.00;79730.94;5030450;28;19913;-67
2022/01/15 06:04:10;;;;;;;127.45;23.20;;;;;;;-142.75;100.00;79727.00;5033862;28;20100;-64
2022/01/15 06:06:36;;;;;;;107.53;21.03;;;;;;;-142.75;100.00;79717.16;5033756;28;20509;-66
2022/01/15 06:09:02;;;;;;;96.60;20.40;;;;;;;-142.75;100.00;79709.28;5033470;28;20279;-66
2022/01/15 06:11:28;;;;;;;182.40;23.03;;;;;;;-142.75;100.00;79717.16;5015849;28;20268;-68
2022/01/15 06:13:54;;;;;;;130.23;23.05;;;;;;;-142.75;100.00;79734.88;5015815;28;20018;-68
2022/01/15 06:16:19;;;;;;;119.13;22.70;;;;;;;-142.75;100.00;79734.88;5033690;28;20057;-67
2022/01/15 06:18:44;;;;;;;95.57;20.35;;;;;;;-142.75;100.00;79727.00;5015450;28;20030;-66
2022/01/15 06:21:10;;;;;;;112.97;20.00;;;;;;;-142.75;100.00;79725.03;5033567;28;20032;-66
2022/01/15 06:23:35;;;;;;;156.18;22.20;;;;;;;-142.75;100.00;79744.72;5033194;28;20025;-66
2022/01/15 06:26:00;;;;;;;132.38;22.38;;;;;;;-142.75;100.00;79742.75;5015745;28;20026;-68
2022/01/15 06:28:26;;;;;;;108.47;21.30;;;;;;;-142.75;100.00;79732.91;5033024;28;20086;-66
2022/01/15 06:30:51;;;;;;;117.75;22.85;;;;;;;-142.75;100.00;79732.91;5033428;28;20103;-67
2022/01/15 06:33:16;;;;;;;111.15;22.70;;;;;;;-142.75;100.00;79728.97;5033135;28;20037;-66
2022/01/15 06:35:42;;;;;;;141.55;22.73;;;;;;;-142.75;100.00;79725.03;5015287;28;20033;-67
2022/01/15 06:38:07;;;;;;;87.03;21.55;;;;;;;-142.75;100.00;79721.09;5015034;28;20124;-67
2022/01/15 06:40:33;;;;;;;114.63;25.13;;;;;;;-142.75;100.00;79713.22;5015164;28;20104;-66
2022/01/15 06:43:00;;;;;;;112.40;22.38;;;;;;;-142.75;100.00;79721.09;5015210;28;20053;-67
2022/01/15 06:45:26;;;;;;;103.33;22.73;;;;;;;-142.75;100.00;79727.00;5032906;28;20029;-67
2022/01/15 06:47:51;;;;;;;109.10;22.97;;;;;;;-142.75;100.00;79725.03;5014923;28;20025;-65
2022/01/15 06:50:17;;;;;;;101.22;25.25;;;;;;;-142.75;100.00;79728.97;5032739;28;20029;-67
2022/01/15 06:52:42;;;;;;;106.30;24.42;;;;;;;-142.75;100.00;79744.72;5032535;28;20056;-68
2022/01/15 06:55:09;;;;;;;143.93;25.67;;;;;;;-142.75;100.00;79742.75;5032707;28;20026;-67
2022/01/15 06:57:34;;;;;;;216.23;28.37;;;;;;;-142.75;100.00;79740.78;5014917;28;20272;-66
2022/01/15 07:00:01;;;;;;;163.63;27.92;;;;;;;-142.75;100.00;79738.81;5032405;28;20113;-67
2022/01/15 07:02:26;;;;;;;161.80;29.40;;;;;;;-142.75;100.00;79736.84;5032549;28;20053;-67
2022/01/15 07:04:51;;;;;;;139.05;28.05;;;;;;;-142.75;100.00;79734.88;5032456;28;20434;-66
2022/01/15 07:07:17;;;;;;;160.97;28.47;;;;;;;-142.75;100.00;79727.00;5032474;28;20025;-66
2022/01/15 07:09:42;;;;;;;158.83;29.47;;;;;;;-142.75;100.00;79727.00;5032264;28;20311;-67
2022/01/15 07:12:08;;;;;;;150.88;26.88;;;;;;;-142.75;100.00;79732.91;5014675;28;20021;-66
2022/01/15 07:14:33;;;;;;;130.02;25.65;;;;;;;-142.75;100.00;79732.91;5032328;28;20029;-66
2022/01/15 07:16:58;;;;;;;175.98;28.35;;;;;;;-142.75;100.00;79732.91;5032325;28;20029;-67
2022/01/15 07:19:24;;;;;;;137.82;29.42;;;;;;;-142.75;100.00;79728.97;5014267;28;20057;-66
2022/01/15 07:21:49;;;;;;;164.93;28.47;;;;;;;-142.75;100.00;79727.00;5032079;28;20013;-67
2022/01/15 07:24:16;;;;;;;166.88;29.63;;;;;;;-142.75;100.00;79727.00;5032358;28;20276;-68
2022/01/15 07:26:41;;;;;;;151.13;26.30;;;;;;;-142.75;100.00;79738.81;5032168;28;20490;-68
2022/01/15 07:29:14;;;;;;;176.27;28.13;;;;;;;-142.75;100.00;79742.75;5031883;28;20028;-68
2022/01/15 07:31:39;;;;;;;173.93;29.03;;;;;;;-142.75;100.00;79734.88;5032156;28;20026;-67
2022/01/15 07:34:04;;;;;;;141.02;28.05;;;;;;;-142.75;100.00;79740.78;5031957;28;20446;-66
2022/01/15 07:36:30;;;;;;;130.23;28.20;;;;;;;-142.75;100.00;79736.84;5032016;28;20033;-66
2022/01/15 07:38:55;;;;;;;164.27;29.58;;;;;;;-142.75;100.00;79728.97;5031651;28;20025;-64
2022/01/15 07:41:22;;;;;;;132.50;28.75;;;;;;;-142.75;100.00;79732.91;5014056;28;20115;-67
2022/01/15 07:43:47;;;;;;;195.80;29.50;;;;;;;-142.75;100.00;79732.91;5031721;28;20029;-66
2022/01/15 07:46:12;;;;;;;156.75;29.60;;;;;;;-142.75;100.00;79730.94;5031713;28;20031;-66
2022/01/15 07:48:38;;;;;;;187.10;30.45;;;;;;;-142.75;100.00;79727.00;5031416;28;20048;-67
2022/01/15 07:51:03;;;;;;;220.35;31.25;;;;;;;-142.75;100.00;79723.06;5031589;28;20044;-66
2022/01/15 07:53:29;;;;;;;207.23;30.35;;;;;;;-142.75;100.00;79723.06;5031481;28;20477;-68
2022/01/15 07:55:54;;;;;;;229.20;31.23;;;;;;;-142.75;100.00;79717.16;5031679;28;20749;-66
2022/01/15 07:58:19;;;;;;;204.75;31.27;;;;;;;-142.75;100.00;79713.22;5031290;28;20399;-67
2022/01/15 08:00:44;;;;;;;262.00;31.67;;;;;;;-142.75;100.00;79713.22;5031505;28;20036;-67
2022/01/15 08:03:10;;;;;;;138.23;29.90;;;;;;;-142.75;100.00;79713.22;5013643;28;20033;-66
2022/01/15 08:05:35;;;;;;;220.45;34.70;;;;;;;-142.75;100.00;79705.34;5031398;28;20760;-67
2022/01/15 08:08:01;;;;;;;172.07;31.83;;;;;;;-142.75;100.00;79699.41;5027243;28;20029;-67
2022/01/15 08:10:26;;;;;;;180.13;32.70;;;;;;;-142.75;100.00;79689.56;5031180;28;20037;-67
2022/01/15 08:12:51;;;;;;;207.40;30.67;;;;;;;-142.75;100.00;79697.44;5009951;28;20045;-66
2022/01/15 08:15:19;;;;;;;188.35;28.23;;;;;;;-142.75;100.00;79703.38;5030240;28;20709;-67
2022/01/15 08:17:44;;;;;;;163.10;29.23;;;;;;;-142.75;100.00;79695.47;5031022;28;20037;-66
2022/01/15 08:20:10;;;;;;;197.20;28.85;;;;;;;-142.75;100.00;79689.56;5012208;28;20564;-66
2022/01/15 08:22:36;;;;;;;180.80;28.87;;;;;;;-142.75;100.00;79677.75;5031144;28;20033;-67
2022/01/15 08:25:01;;;;;;;239.07;29.30;;;;;;;-142.75;100.00;79689.56;5030650;28;20030;-67
2022/01/15 08:27:27;;;;;;;264.20;31.55;;;;;;;-142.75;100.00;79677.75;5031301;28;20111;-67
2022/01/15 08:29:52;;;;;;;222.90;28.73;;;;;;;-142.75;100.00;79683.66;5013088;28;20075;-66
2022/01/15 08:32:17;;;;;;;199.13;29.65;;;;;;;-142.75;100.00;79691.53;5013470;28;20029;-68
2022/01/15 08:34:44;;;;;;;191.75;29.90;;;;;;;-142.75;100.00;79685.63;5030933;28;20025;-67
2022/01/15 08:37:10;;;;;;;213.60;29.73;;;;;;;-142.75;100.00;79693.50;5030910;28;20036;-67
2022/01/15 08:39:36;;;;;;;184.43;28.13;;;;;;;-142.75;100.00;79691.53;5030692;28;20390;-67
2022/01/15 08:42:02;;;;;;;189.57;28.75;;;;;;;-142.75;100.00;79685.63;5031022;28;20028;-67
2022/01/15 08:44:28;;;;;;;152.77;30.03;;;;;;;-142.75;100.00;79685.63;5030755;28;20097;-67
2022/01/15 08:46:53;;;;;;;289.42;33.42;;;;;;;-142.75;100.00;79669.88;5030856;28;20116;-67
2022/01/15 08:49:19;;;;;;;153.25;30.42;;;;;;;-142.75;100.00;79658.06;5030616;28;20487;-67
2022/01/15 08:51:45;;;;;;;241.20;32.00;;;;;;;-142.75;100.00;79658.06;5031018;28;20042;-67
2022/01/15 08:54:11;;;;;;;157.02;30.98;;;;;;;-142.75;100.00;79654.13;5030819;28;20455;-69
2022/01/15 08:56:36;;;;;;;223.70;30.17;;;;;;;-142.75;100.00;79656.09;5030712;28;20022;-66
2022/01/15 08:59:03;;;;;;;221.68;32.92;;;;;;;-142.75;100.00;79654.13;5030513;28;20407;-66
2022/01/15 09:01:28;;;;;;;190.33;30.97;;;;;;;-142.75;100.00;79646.22;5012053;28;20033;-66
2022/01/15 09:03:55;;;;;;;243.50;30.63;;;;;;;-142.75;100.00;79638.34;5029528;28;20022;-67
2022/01/15 09:06:21;;;;;;;196.07;31.57;;;;;;;-142.75;100.00;79640.31;5029679;28;20029;-66
2022/01/15 09:08:47;;;;;;;205.93;26.75;;;;;;;-142.75;100.00;79650.16;5029521;28;20108;-67
2022/01/15 09:11:12;;;;;;;178.27;27.85;;;;;;;-142.75;100.00;79658.06;5029431;28;20025;-66
2022/01/15 09:13:38;;;;;;;182.45;27.80;;;;;;;-142.75;100.00;79650.16;5029569;28;20553;-66
2022/01/15 09:16:03;;;;;;;227.07;27.58;;;;;;;-142.75;100.00;79648.19;5029575;28;20087;-65
2022/01/15 09:18:29;;;;;;;226.95;29.00;;;;;;;-142.75;100.00;79648.19;5029155;28;20029;-66
2022/01/15 09:20:55;;;;;;;152.77;29.15;;;;;;;-142.75;100.00;79652.13;5029580;28;20029;-66
2022/01/15 09:23:21;;;;;;;205.32;30.55;;;;;;;-142.75;100.00;79648.19;5011838;28;20502;-64
2022/01/15 09:25:46;;;;;;;178.55;31.75;;;;;;;-142.75;100.00;79642.28;5029361;28;20025;-66
2022/01/15 09:30:55;;;;;;;172.03;30.70;;;;;;;-142.75;100.00;79652.13;5029285;28;20079;-66
2022/01/15 09:33:21;;;;;;;140.48;30.13;;;;;;;-142.75;100.00;79636.38;5029278;28;20021;-66
2022/01/15 09:35:46;;;;;;;167.18;33.17;;;;;;;-142.75;100.00;79622.59;5029434;28;20107;-66
2022/01/15 09:38:15;;;;;;;161.50;28.05;;;;;;;-142.75;100.00;79622.59;5031137;28;20025;-66
2022/01/15 09:40:41;;;;;;;186.03;28.90;;;;;;;-142.75;100.00;79628.50;5024686;28;20048;-68
2022/01/15 09:43:08;;;;;;;229.00;30.75;;;;;;;-142.75;100.00;79634.41;5025910;28;20026;-66
2022/01/15 09:45:35;;;;;;;242.20;30.50;;;;;;;-142.75;100.00;79622.59;5025735;28;20025;-65
2022/01/15 09:48:03;;;;;;;226.27;31.90;;;;;;;-142.75;100.00;79610.78;5012068;28;20461;-67
2022/01/15 09:50:32;;;;;;;173.73;29.70;;;;;;;-142.75;100.00;79622.59;5025728;28;20513;-65
2022/01/15 09:52:57;;;;;;;143.90;27.20;;;;;;;-142.75;100.00;79620.63;5026884;28;20039;-67
2022/01/15 09:55:24;;;;;;;159.75;29.25;;;;;;;-142.75;100.00;79614.72;5031547;28;20709;-65
2022/01/15 09:57:50;;;;;;;154.00;26.90;;;;;;;-142.75;100.00;79622.59;5032776;28;20033;-65
2022/01/15 10:00:18;;;;;;;163.73;28.57;;;;;;;-142.75;100.00;79612.75;5032525;28;20021;-67
2022/01/15 10:02:45;;;;;;;146.37;27.27;;;;;;;-142.75;100.00;79600.91;5032697;28;20030;-66
2022/01/15 10:05:13;;;;;;;166.70;27.17;;;;;;;-142.75;100.00;79610.78;5032859;28;20386;-66
2022/01/15 10:07:52;;;;;;;143.17;26.60;;;;;;;-142.75;100.00;79610.78;5032543;28;20087;-66
2022/01/15 10:10:20;;;;;;;142.10;28.67;;;;;;;-142.75;100.00;79622.59;5015048;28;20091;-65
2022/01/15 10:12:46;;;;;;;170.33;28.10;;;;;;;-142.75;100.00;79602.88;5025898;28;20470;-65
2022/01/15 10:15:12;;;;;;;153.82;29.83;;;;;;;-142.75;100.00;79606.84;5009944;28;20030;-65
2022/01/15 10:17:39;;;;;;;143.77;30.05;;;;;;;-142.75;100.00;79602.88;5024875;28;20033;-65
2022/01/15 10:20:18;;;;;;;204.93;32.73;;;;;;;-142.75;100.00;79606.84;5030686;28;20566;-65
2022/01/15 10:22:49;;;;;;;109.97;26.13;;;;;;;-142.75;100.00;79604.88;5031818;28;20029;-67
2022/01/15 10:25:21;;;;;;;103.47;24.90;;;;;;;-142.75;100.00;79604.88;5014718;28;20021;-66
2022/01/15 10:27:53;;;;;;;88.87;23.47;;;;;;;-142.75;100.00;79606.84;5032206;28;20395;-68
2022/01/15 10:30:22;;;;;;;84.00;23.00;;;;;;;-142.75;100.00;79612.75;5011851;28;20021;-66
2022/01/15 10:32:58;;;;;;;85.63;23.13;;;;;;;-142.75;100.00;79614.72;5032426;28;20544;-66
2022/01/15 10:35:25;;;;;;;81.03;22.80;;;;;;;-142.75;100.00;79616.69;5032801;28;20422;-67
2022/01/15 10:37:59;;;;;;;79.73;22.47;;;;;;;-142.75;100.00;79618.66;5031869;28;20037;-66
2022/01/15 10:40:27;;;;;;;76.37;21.90;;;;;;;-142.75;100.00;79626.53;5032175;28;20079;-67
2022/01/15 10:42:59;;;;;;;76.03;23.50;;;;;;;-142.75;100.00;79630.47;5031879;28;20032;-66
2022/01/15 10:45:29;;;;;;;90.47;23.87;;;;;;;-142.75;100.00;79632.44;5028897;28;20029;-66
2022/01/15 10:47:56;;;;;;;76.67;23.03;;;;;;;-142.75;100.00;79630.47;5010183;28;20029;-64
2022/01/15 10:50:30;;;;;;;83.13;23.47;;;;;;;-142.75;100.00;79630.47;5031912;28;20022;-66
2022/01/15 10:53:04;;;;;;;75.03;23.03;;;;;;;-142.75;100.00;79630.47;5031680;28;20479;-65
2022/01/15 10:55:31;;;;;;;87.70;22.63;;;;;;;-142.75;100.00;79626.53;5031949;28;20032;-66
2022/01/15 10:58:03;;;;;;;83.00;22.33;;;;;;;-142.75;100.00;79626.53;5013909;28;20104;-67
2022/01/15 11:00:38;;;;;;;77.30;21.70;;;;;;;-142.75;100.00;79628.50;5013738;28;20033;-65
2022/01/15 11:03:11;;;;;;;77.70;23.20;;;;;;;-142.75;100.00;79616.69;5031589;28;20029;-66
2022/01/15 11:05:47;;;;;;;84.20;23.13;;;;;;;-142.75;100.00;79610.78;5029255;28;20021;-66
2022/01/15 11:08:17;;;;;;;82.32;22.30;;;;;;;-142.75;100.00;79596.97;5031267;28;20029;-66
2022/01/15 11:10:46;;;;;;;78.80;23.33;;;;;;;-142.75;100.00;79587.13;5028848;28;20068;-65
2022/01/15 11:13:14;;;;;;;82.70;23.70;;;;;;;-142.75;100.00;79575.31;5013777;28;20023;-66
2022/01/15 11:15:43;;;;;;;71.13;24.90;;;;;;;-142.75;100.00;79579.25;5031395;28;20029;-65